sensor_id;sensor_type;location;lat;lon;timestamp;temperature;humidity
18426;DHT22;9340;48.756;9.226;2022-07-23T00:00:59;24.20;99.90
18426;DHT22;9340;48.756;9.226;2022-07-23T00:03:27;24.20;99.90
18426;DHT22;9340;48.756;9.226;2022-07-23T00:05:53;24.10;99.90
18426;DHT22;9340;48.756;9.226;2022-07-23T00:08:20;24.10;99.90
18426;DHT22;9340;48.756;9.226;2022-07-23T00:10:46;24.20;99.90
18426;DHT22;9340;48.756;9.226;2022-07-23T00:13:13;24.20;99.90
18426;DHT22;9340;48.756;9.226;2022-07-23T00:15:40;24.30;99.90
18426;DHT22;9340;48.756;9.226;2022-07-23T00:18:07;24.20;99.90
18426;DHT22;9340;48.756;9.226;2022-07-23T00:20:35;24.20;99.90
18426;DHT22;9340;48.756;9.226;2022-07-23T00:23:01;24.20;99.90
18426;DHT22;9340;48.756;9.226;2022-07-23T00:25:28;24.20;99.90
18426;DHT22;9340;48.756;9.226;2022-07-23T00:27:55;24.30;99.90
18426;DHT22;9340;48.756;9.226;2022-07-23T00:30:21;24.20;99.90
18426;DHT22;9340;48.756;9.226;2022-07-23T00:32:51;24.30;99.90
18426;DHT22;9340;48.756;9.226;2022-07-23T00:35:19;24.30;99.90
18426;DHT22;9340;48.756;9.226;2022-07-23T00:37:48;24.20;99.90
18426;DHT22;9340;48.756;9.226;2022-07-23T00:40:15;24.20;99.90
18426;DHT22;9340;48.756;9.226;2022-07-23T00:42:42;24.20;99.90
18426;DHT22;9340;48.756;9.226;2022-07-23T00:45:10;24.10;99.90
18426;DHT22;9340;48.756;9.226;2022-07-23T00:47:37;24.10;99.90
18426;DHT22;9340;48.756;9.226;2022-07-23T00:50:06;23.90;99.90
18426;DHT22;9340;48.756;9.226;2022-07-23T00:52:34;23.80;99.90
18426;DHT22;9340;48.756;9.226;2022-07-23T00:55:03;23.60;99.90
18426;DHT22;9340;48.756;9.226;2022-07-23T00:57:31;23.50;99.90
18426;DHT22;9340;48.756;9.226;2022-07-23T00:59:57;23.40;99.90
18426;DHT22;9340;48.756;9.226;2022-07-23T01:02:25;23.30;99.90
18426;DHT22;9340;48.756;9.226;2022-07-23T01:04:52;23.20;99.90
18426;DHT22;9340;48.756;9.226;2022-07-23T01:07:19;23.10;99.90
18426;DHT22;9340;48.756;9.226;2022-07-23T01:09:46;23.20;99.90
18426;DHT22;9340;48.756;9.226;2022-07-23T01:12:14;23.10;99.90
18426;DHT22;9340;48.756;9.226;2022-07-23T01:14:41;23.10;99.90
18426;DHT22;9340;48.756;9.226;2022-07-23T01:17:08;23.00;99.90
18426;DHT22;9340;48.756;9.226;2022-07-23T01:19:35;23.00;99.90
18426;DHT22;9340;48.756;9.226;2022-07-23T01:22:03;23.00;99.90
18426;DHT22;9340;48.756;9.226;2022-07-23T01:24:31;22.90;99.90
18426;DHT22;9340;48.756;9.226;2022-07-23T01:26:58;22.90;99.90
18426;DHT22;9340;48.756;9.226;2022-07-23T01:29:24;22.90;99.90
18426;DHT22;9340;48.756;9.226;2022-07-23T01:31:51;22.80;99.90
18426;DHT22;9340;48.756;9.226;2022-07-23T01:34:18;22.90;99.90
18426;DHT22;9340;48.756;9.226;2022-07-23T01:36:44;22.90;99.90
18426;DHT22;9340;48.756;9.226;2022-07-23T01:39:12;22.90;99.90
18426;DHT22;9340;48.756;9.226;2022-07-23T01:41:40;22.80;99.90
18426;DHT22;9340;48.756;9.226;2022-07-23T01:44:07;22.80;99.90
18426;DHT22;9340;48.756;9.226;2022-07-23T01:46:33;22.70;99.90
18426;DHT22;9340;48.756;9.226;2022-07-23T01:49:00;22.70;99.90
18426;DHT22;9340;48.756;9.226;2022-07-23T01:51:27;22.70;99.90
18426;DHT22;9340;48.756;9.226;2022-07-23T01:53:54;22.60;99.90
18426;DHT22;9340;48.756;9.226;2022-07-23T01:56:20;22.50;99.90
18426;DHT22;9340;48.756;9.226;2022-07-23T01:58:49;22.60;99.90
18426;DHT22;9340;48.756;9.226;2022-07-23T02:01:15;22.40;99.90
18426;DHT22;9340;48.756;9.226;2022-07-23T02:03:42;22.40;99.90
18426;DHT22;9340;48.756;9.226;2022-07-23T02:06:09;22.30;99.90
18426;DHT22;9340;48.756;9.226;2022-07-23T02:08:35;22.20;99.90
18426;DHT22;9340;48.756;9.226;2022-07-23T02:11:02;22.10;99.90
18426;DHT22;9340;48.756;9.226;2022-07-23T02:13:29;22.00;99.90
18426;DHT22;9340;48.756;9.226;2022-07-23T02:15:57;21.90;99.90
18426;DHT22;9340;48.756;9.226;2022-07-23T02:18:23;21.90;99.90
18426;DHT22;9340;48.756;9.226;2022-07-23T02:20:50;22.00;99.90
18426;DHT22;9340;48.756;9.226;2022-07-23T02:23:17;22.00;99.90
18426;DHT22;9340;48.756;9.226;2022-07-23T02:25:43;22.00;99.90
18426;DHT22;9340;48.756;9.226;2022-07-23T02:28:10;22.00;99.90
18426;DHT22;9340;48.756;9.226;2022-07-23T02:30:37;21.90;99.90
18426;DHT22;9340;48.756;9.226;2022-07-23T02:33:06;21.80;99.90
18426;DHT22;9340;48.756;9.226;2022-07-23T02:35:32;21.80;99.90
18426;DHT22;9340;48.756;9.226;2022-07-23T02:37:59;21.80;99.90
18426;DHT22;9340;48.756;9.226;2022-07-23T02:40:26;21.70;99.90
18426;DHT22;9340;48.756;9.226;2022-07-23T02:42:52;21.70;99.90
18426;DHT22;9340;48.756;9.226;2022-07-23T02:45:19;21.70;99.90
18426;DHT22;9340;48.756;9.226;2022-07-23T02:47:46;21.60;99.90
18426;DHT22;9340;48.756;9.226;2022-07-23T02:50:14;21.50;99.90
18426;DHT22;9340;48.756;9.226;2022-07-23T02:52:40;21.20;99.90
18426;DHT22;9340;48.756;9.226;2022-07-23T02:55:08;21.30;99.90
18426;DHT22;9340;48.756;9.226;2022-07-23T02:57:34;21.20;99.90
18426;DHT22;9340;48.756;9.226;2022-07-23T03:00:01;21.30;99.90
18426;DHT22;9340;48.756;9.226;2022-07-23T03:02:28;21.30;99.90
18426;DHT22;9340;48.756;9.226;2022-07-23T03:04:54;21.30;99.90
18426;DHT22;9340;48.756;9.226;2022-07-23T03:10:13;21.30;99.90
18426;DHT22;9340;48.756;9.226;2022-07-23T03:12:40;21.30;99.90
18426;DHT22;9340;48.756;9.226;2022-07-23T03:15:08;21.30;99.90
18426;DHT22;9340;48.756;9.226;2022-07-23T03:17:35;21.20;99.90
18426;DHT22;9340;48.756;9.226;2022-07-23T03:20:02;21.30;99.90
18426;DHT22;9340;48.756;9.226;2022-07-23T03:22:30;21.30;99.90
18426;DHT22;9340;48.756;9.226;2022-07-23T03:24:56;21.40;99.90
18426;DHT22;9340;48.756;9.226;2022-07-23T03:27:24;21.30;99.90
18426;DHT22;9340;48.756;9.226;2022-07-23T03:29:52;21.40;99.90
18426;DHT22;9340;48.756;9.226;2022-07-23T03:32:19;21.40;99.90
18426;DHT22;9340;48.756;9.226;2022-07-23T03:34:46;21.30;99.90
18426;DHT22;9340;48.756;9.226;2022-07-23T03:37:13;21.10;99.90
18426;DHT22;9340;48.756;9.226;2022-07-23T03:39:41;20.90;99.90
18426;DHT22;9340;48.756;9.226;2022-07-23T03:42:08;20.90;99.90
18426;DHT22;9340;48.756;9.226;2022-07-23T03:44:35;20.90;99.90
18426;DHT22;9340;48.756;9.226;2022-07-23T03:47:03;21.00;99.90
18426;DHT22;9340;48.756;9.226;2022-07-23T03:49:31;20.80;99.90
18426;DHT22;9340;48.756;9.226;2022-07-23T03:51:58;20.60;99.90
18426;DHT22;9340;48.756;9.226;2022-07-23T03:54:25;20.60;99.90
18426;DHT22;9340;48.756;9.226;2022-07-23T03:56:53;20.60;99.90
18426;DHT22;9340;48.756;9.226;2022-07-23T03:59:19;20.60;99.90
18426;DHT22;9340;48.756;9.226;2022-07-23T04:01:46;20.60;99.90
18426;DHT22;9340;48.756;9.226;2022-07-23T04:04:13;20.60;99.90
18426;DHT22;9340;48.756;9.226;2022-07-23T04:06:39;20.50;99.90
18426;DHT22;9340;48.756;9.226;2022-07-23T04:09:06;20.60;99.90
18426;DHT22;9340;48.756;9.226;2022-07-23T04:11:33;20.70;99.90
18426;DHT22;9340;48.756;9.226;2022-07-23T04:14:01;20.80;99.90
18426;DHT22;9340;48.756;9.226;2022-07-23T04:16:27;20.90;99.90
18426;DHT22;9340;48.756;9.226;2022-07-23T04:18:56;21.00;99.90
18426;DHT22;9340;48.756;9.226;2022-07-23T04:21:23;21.00;99.90
18426;DHT22;9340;48.756;9.226;2022-07-23T04:23:50;20.80;99.90
18426;DHT22;9340;48.756;9.226;2022-07-23T04:26:16;20.80;99.90
18426;DHT22;9340;48.756;9.226;2022-07-23T04:28:43;21.00;99.90
18426;DHT22;9340;48.756;9.226;2022-07-23T04:31:11;21.10;99.90
18426;DHT22;9340;48.756;9.226;2022-07-23T04:33:38;21.20;99.90
18426;DHT22;9340;48.756;9.226;2022-07-23T04:36:05;21.20;99.90
18426;DHT22;9340;48.756;9.226;2022-07-23T04:38:31;21.20;99.90
18426;DHT22;9340;48.756;9.226;2022-07-23T04:40:59;21.30;99.90
18426;DHT22;9340;48.756;9.226;2022-07-23T04:43:26;21.50;99.90
18426;DHT22;9340;48.756;9.226;2022-07-23T04:45:53;21.60;99.90
18426;DHT22;9340;48.756;9.226;2022-07-23T04:48:21;21.60;99.90
18426;DHT22;9340;48.756;9.226;2022-07-23T04:50:48;21.60;99.90
18426;DHT22;9340;48.756;9.226;2022-07-23T04:53:14;21.60;99.90
18426;DHT22;9340;48.756;9.226;2022-07-23T04:55:41;21.60;99.90
18426;DHT22;9340;48.756;9.226;2022-07-23T04:58:08;21.60;99.90
18426;DHT22;9340;48.756;9.226;2022-07-23T05:00:34;21.60;99.90
18426;DHT22;9340;48.756;9.226;2022-07-23T05:03:01;21.70;99.90
18426;DHT22;9340;48.756;9.226;2022-07-23T05:05:29;21.80;99.90
18426;DHT22;9340;48.756;9.226;2022-07-23T05:07:56;22.00;99.90
18426;DHT22;9340;48.756;9.226;2022-07-23T05:10:23;22.10;99.90
18426;DHT22;9340;48.756;9.226;2022-07-23T05:12:49;22.40;99.90
18426;DHT22;9340;48.756;9.226;2022-07-23T05:15:16;22.70;99.90
18426;DHT22;9340;48.756;9.226;2022-07-23T05:17:43;22.90;99.90
18426;DHT22;9340;48.756;9.226;2022-07-23T05:20:10;23.00;99.90
18426;DHT22;9340;48.756;9.226;2022-07-23T05:22:38;23.10;99.90
18426;DHT22;9340;48.756;9.226;2022-07-23T05:25:06;23.10;99.90
18426;DHT22;9340;48.756;9.226;2022-07-23T05:27:33;23.10;99.90
18426;DHT22;9340;48.756;9.226;2022-07-23T05:30:00;23.00;99.90
18426;DHT22;9340;48.756;9.226;2022-07-23T05:32:26;23.00;99.90
18426;DHT22;9340;48.756;9.226;2022-07-23T05:34:53;23.20;99.90
18426;DHT22;9340;48.756;9.226;2022-07-23T05:37:19;23.30;99.90
18426;DHT22;9340;48.756;9.226;2022-07-23T05:39:48;23.60;99.90
18426;DHT22;9340;48.756;9.226;2022-07-23T05:42:14;23.90;99.90
18426;DHT22;9340;48.756;9.226;2022-07-23T05:44:41;24.00;99.90
18426;DHT22;9340;48.756;9.226;2022-07-23T05:47:08;24.10;99.90
18426;DHT22;9340;48.756;9.226;2022-07-23T05:49:36;24.00;99.90
18426;DHT22;9340;48.756;9.226;2022-07-23T05:52:04;23.90;99.90
18426;DHT22;9340;48.756;9.226;2022-07-23T05:54:31;23.90;99.90
18426;DHT22;9340;48.756;9.226;2022-07-23T05:57:01;23.90;99.90
18426;DHT22;9340;48.756;9.226;2022-07-23T05:59:28;23.90;99.90
18426;DHT22;9340;48.756;9.226;2022-07-23T06:01:55;24.00;99.90
18426;DHT22;9340;48.756;9.226;2022-07-23T06:04:21;23.80;99.90
18426;DHT22;9340;48.756;9.226;2022-07-23T06:06:48;23.80;99.90
18426;DHT22;9340;48.756;9.226;2022-07-23T06:09:15;23.70;99.90
18426;DHT22;9340;48.756;9.226;2022-07-23T06:11:41;23.60;99.90
18426;DHT22;9340;48.756;9.226;2022-07-23T06:14:09;23.50;99.90
18426;DHT22;9340;48.756;9.226;2022-07-23T06:16:36;23.40;99.90
18426;DHT22;9340;48.756;9.226;2022-07-23T06:19:03;23.30;99.90
18426;DHT22;9340;48.756;9.226;2022-07-23T06:21:29;23.50;99.90
18426;DHT22;9340;48.756;9.226;2022-07-23T06:23:56;23.70;99.90
18426;DHT22;9340;48.756;9.226;2022-07-23T06:26:23;24.00;99.90
18426;DHT22;9340;48.756;9.226;2022-07-23T06:28:49;24.50;99.90
18426;DHT22;9340;48.756;9.226;2022-07-23T06:31:17;24.90;99.90
18426;DHT22;9340;48.756;9.226;2022-07-23T06:33:44;25.30;99.90
18426;DHT22;9340;48.756;9.226;2022-07-23T06:36:11;25.70;99.90
18426;DHT22;9340;48.756;9.226;2022-07-23T06:38:37;26.10;99.90
18426;DHT22;9340;48.756;9.226;2022-07-23T06:41:04;26.50;99.90
18426;DHT22;9340;48.756;9.226;2022-07-23T06:43:31;26.70;99.90
18426;DHT22;9340;48.756;9.226;2022-07-23T06:45:58;26.70;99.90
18426;DHT22;9340;48.756;9.226;2022-07-23T06:48:26;26.60;99.90
18426;DHT22;9340;48.756;9.226;2022-07-23T06:50:53;26.40;99.90
18426;DHT22;9340;48.756;9.226;2022-07-23T06:53:20;26.20;99.90
18426;DHT22;9340;48.756;9.226;2022-07-23T06:55:47;26.40;99.90
18426;DHT22;9340;48.756;9.226;2022-07-23T06:58:13;26.40;99.90
18426;DHT22;9340;48.756;9.226;2022-07-23T07:00:40;26.10;99.90
18426;DHT22;9340;48.756;9.226;2022-07-23T07:03:07;25.70;99.90
18426;DHT22;9340;48.756;9.226;2022-07-23T07:05:35;25.70;99.90
18426;DHT22;9340;48.756;9.226;2022-07-23T07:08:02;25.60;99.90
18426;DHT22;9340;48.756;9.226;2022-07-23T07:10:29;25.60;99.90
18426;DHT22;9340;48.756;9.226;2022-07-23T07:12:56;25.50;99.90
18426;DHT22;9340;48.756;9.226;2022-07-23T07:15:22;25.40;99.90
18426;DHT22;9340;48.756;9.226;2022-07-23T07:17:49;25.30;99.90
18426;DHT22;9340;48.756;9.226;2022-07-23T07:20:16;25.20;99.90
18426;DHT22;9340;48.756;9.226;2022-07-23T07:22:44;25.10;99.90
18426;DHT22;9340;48.756;9.226;2022-07-23T07:25:11;25.20;99.90
18426;DHT22;9340;48.756;9.226;2022-07-23T07:27:37;25.10;99.90
18426;DHT22;9340;48.756;9.226;2022-07-23T07:30:06;25.10;99.90
18426;DHT22;9340;48.756;9.226;2022-07-23T07:32:33;24.20;99.90
18426;DHT22;9340;48.756;9.226;2022-07-23T07:35:02;23.80;99.90
18426;DHT22;9340;48.756;9.226;2022-07-23T07:37:28;23.60;99.90
18426;DHT22;9340;48.756;9.226;2022-07-23T07:39:57;23.60;99.90
18426;DHT22;9340;48.756;9.226;2022-07-23T07:42:23;23.60;99.90
18426;DHT22;9340;48.756;9.226;2022-07-23T07:44:50;23.50;99.90
18426;DHT22;9340;48.756;9.226;2022-07-23T07:47:17;23.40;99.90
18426;DHT22;9340;48.756;9.226;2022-07-23T07:49:43;23.50;99.90
18426;DHT22;9340;48.756;9.226;2022-07-23T07:52:11;24.00;99.90
18426;DHT22;9340;48.756;9.226;2022-07-23T07:54:37;24.70;99.90
18426;DHT22;9340;48.756;9.226;2022-07-23T07:57:06;25.30;99.90
18426;DHT22;9340;48.756;9.226;2022-07-23T07:59:32;25.80;99.90
18426;DHT22;9340;48.756;9.226;2022-07-23T08:01:59;25.40;99.90
18426;DHT22;9340;48.756;9.226;2022-07-23T08:04:26;25.70;99.90
18426;DHT22;9340;48.756;9.226;2022-07-23T08:06:52;25.60;99.90
18426;DHT22;9340;48.756;9.226;2022-07-23T08:09:19;25.60;99.90
18426;DHT22;9340;48.756;9.226;2022-07-23T08:11:46;26.00;99.90
18426;DHT22;9340;48.756;9.226;2022-07-23T08:14:14;26.50;99.90
18426;DHT22;9340;48.756;9.226;2022-07-23T08:16:40;26.50;99.90
18426;DHT22;9340;48.756;9.226;2022-07-23T08:19:07;26.60;99.90
18426;DHT22;9340;48.756;9.226;2022-07-23T08:21:34;26.30;99.90
18426;DHT22;9340;48.756;9.226;2022-07-23T08:24:00;26.30;99.90
18426;DHT22;9340;48.756;9.226;2022-07-23T08:26:27;26.50;99.90
18426;DHT22;9340;48.756;9.226;2022-07-23T08:28:54;25.90;99.90
18426;DHT22;9340;48.756;9.226;2022-07-23T08:31:22;25.70;99.90
18426;DHT22;9340;48.756;9.226;2022-07-23T08:33:48;25.40;99.90
18426;DHT22;9340;48.756;9.226;2022-07-23T08:36:15;25.30;99.90
18426;DHT22;9340;48.756;9.226;2022-07-23T08:38:42;25.30;99.90
18426;DHT22;9340;48.756;9.226;2022-07-23T08:41:09;25.30;99.90
18426;DHT22;9340;48.756;9.226;2022-07-23T08:43:36;25.40;99.90
18426;DHT22;9340;48.756;9.226;2022-07-23T08:46:03;25.50;99.90
18426;DHT22;9340;48.756;9.226;2022-07-23T08:48:33;25.70;99.90
18426;DHT22;9340;48.756;9.226;2022-07-23T08:51:03;25.70;99.90
18426;DHT22;9340;48.756;9.226;2022-07-23T08:53:32;26.00;99.90
18426;DHT22;9340;48.756;9.226;2022-07-23T08:56:00;26.30;99.90
18426;DHT22;9340;48.756;9.226;2022-07-23T08:58:28;26.40;99.90
18426;DHT22;9340;48.756;9.226;2022-07-23T09:00:55;26.40;99.90
18426;DHT22;9340;48.756;9.226;2022-07-23T09:03:23;26.40;99.90
18426;DHT22;9340;48.756;9.226;2022-07-23T09:05:52;26.40;99.90
18426;DHT22;9340;48.756;9.226;2022-07-23T09:08:22;26.40;99.90
18426;DHT22;9340;48.756;9.226;2022-07-23T09:10:51;26.40;99.90
18426;DHT22;9340;48.756;9.226;2022-07-23T09:13:36;26.60;99.90
18426;DHT22;9340;48.756;9.226;2022-07-23T09:16:06;26.60;99.90
18426;DHT22;9340;48.756;9.226;2022-07-23T09:18:38;26.60;99.90
18426;DHT22;9340;48.756;9.226;2022-07-23T09:21:12;26.70;99.90
18426;DHT22;9340;48.756;9.226;2022-07-23T09:23:42;27.00;99.90
18426;DHT22;9340;48.756;9.226;2022-07-23T09:26:24;27.30;99.90
18426;DHT22;9340;48.756;9.226;2022-07-23T09:28:54;27.30;99.90
18426;DHT22;9340;48.756;9.226;2022-07-23T09:31:21;27.50;99.90
18426;DHT22;9340;48.756;9.226;2022-07-23T09:33:48;27.70;99.90
18426;DHT22;9340;48.756;9.226;2022-07-23T09:36:27;28.00;99.90
18426;DHT22;9340;48.756;9.226;2022-07-23T09:38:54;28.10;99.90
18426;DHT22;9340;48.756;9.226;2022-07-23T09:41:21;28.20;99.90
18426;DHT22;9340;48.756;9.226;2022-07-23T09:43:54;28.40;99.90
18426;DHT22;9340;48.756;9.226;2022-07-23T09:46:24;28.40;99.90
18426;DHT22;9340;48.756;9.226;2022-07-23T09:48:51;28.20;99.90
18426;DHT22;9340;48.756;9.226;2022-07-23T09:51:20;28.20;99.90
18426;DHT22;9340;48.756;9.226;2022-07-23T09:53:53;28.10;99.90
18426;DHT22;9340;48.756;9.226;2022-07-23T09:56:20;28.20;99.90
18426;DHT22;9340;48.756;9.226;2022-07-23T09:58:50;28.20;99.90
18426;DHT22;9340;48.756;9.226;2022-07-23T10:01:17;28.30;99.90
18426;DHT22;9340;48.756;9.226;2022-07-23T10:03:45;28.40;99.90
18426;DHT22;9340;48.756;9.226;2022-07-23T10:06:12;28.60;99.90
18426;DHT22;9340;48.756;9.226;2022-07-23T10:08:41;28.70;99.90
18426;DHT22;9340;48.756;9.226;2022-07-23T10:11:11;28.60;99.90
18426;DHT22;9340;48.756;9.226;2022-07-23T10:13:39;28.50;99.90
18426;DHT22;9340;48.756;9.226;2022-07-23T10:16:21;28.40;99.90
18426;DHT22;9340;48.756;9.226;2022-07-23T10:18:48;28.20;99.90
18426;DHT22;9340;48.756;9.226;2022-07-23T10:21:20;28.10;99.90
18426;DHT22;9340;48.756;9.226;2022-07-23T10:24:01;28.30;99.90
18426;DHT22;9340;48.756;9.226;2022-07-23T10:26:36;28.00;99.90
18426;DHT22;9340;48.756;9.226;2022-07-23T10:29:14;28.10;99.90
18426;DHT22;9340;48.756;9.226;2022-07-23T10:31:52;28.40;99.90
18426;DHT22;9340;48.756;9.226;2022-07-23T10:34:39;28.60;99.90
18426;DHT22;9340;48.756;9.226;2022-07-23T10:37:13;28.80;99.90
18426;DHT22;9340;48.756;9.226;2022-07-23T10:39:43;29.10;99.90
18426;DHT22;9340;48.756;9.226;2022-07-23T10:42:11;29.20;99.90
18426;DHT22;9340;48.756;9.226;2022-07-23T10:44:40;28.80;99.90
18426;DHT22;9340;48.756;9.226;2022-07-23T10:47:08;28.40;99.90
18426;DHT22;9340;48.756;9.226;2022-07-23T10:50:18;28.50;99.90
18426;DHT22;9340;48.756;9.226;2022-07-23T10:53:11;28.50;99.90
18426;DHT22;9340;48.756;9.226;2022-07-23T10:55:45;28.40;99.90
18426;DHT22;9340;48.756;9.226;2022-07-23T10:58:18;28.40;99.90
18426;DHT22;9340;48.756;9.226;2022-07-23T11:00:45;28.00;99.90
18426;DHT22;9340;48.756;9.226;2022-07-23T11:03:31;28.30;99.90
18426;DHT22;9340;48.756;9.226;2022-07-23T11:05:59;28.40;99.90
18426;DHT22;9340;48.756;9.226;2022-07-23T11:08:25;28.50;99.90
18426;DHT22;9340;48.756;9.226;2022-07-23T11:10:55;28.60;99.90
18426;DHT22;9340;48.756;9.226;2022-07-23T11:13:47;28.60;99.90
18426;DHT22;9340;48.756;9.226;2022-07-23T11:16:20;28.60;99.90
18426;DHT22;9340;48.756;9.226;2022-07-23T11:18:59;28.70;99.90
18426;DHT22;9340;48.756;9.226;2022-07-23T11:21:47;28.80;99.90
18426;DHT22;9340;48.756;9.226;2022-07-23T11:24:19;29.00;99.90
18426;DHT22;9340;48.756;9.226;2022-07-23T11:26:51;28.90;99.90
18426;DHT22;9340;48.756;9.226;2022-07-23T11:29:38;29.00;99.90
18426;DHT22;9340;48.756;9.226;2022-07-23T11:32:06;28.50;99.90
18426;DHT22;9340;48.756;9.226;2022-07-23T11:34:34;28.80;99.90
18426;DHT22;9340;48.756;9.226;2022-07-23T11:37:02;29.20;99.90
18426;DHT22;9340;48.756;9.226;2022-07-23T11:39:30;29.40;99.90
18426;DHT22;9340;48.756;9.226;2022-07-23T11:41:59;29.70;99.90
18426;DHT22;9340;48.756;9.226;2022-07-23T11:44:27;29.80;99.90
18426;DHT22;9340;48.756;9.226;2022-07-23T11:46:55;29.90;99.90
18426;DHT22;9340;48.756;9.226;2022-07-23T11:49:22;29.90;99.90
18426;DHT22;9340;48.756;9.226;2022-07-23T11:52:02;29.90;99.90
18426;DHT22;9340;48.756;9.226;2022-07-23T11:54:30;29.60;99.90
18426;DHT22;9340;48.756;9.226;2022-07-23T11:56:58;29.60;99.90
18426;DHT22;9340;48.756;9.226;2022-07-23T11:59:26;29.00;99.90
18426;DHT22;9340;48.756;9.226;2022-07-23T12:01:57;28.60;99.90
18426;DHT22;9340;48.756;9.226;2022-07-23T12:04:24;28.60;99.90
18426;DHT22;9340;48.756;9.226;2022-07-23T12:06:51;28.90;99.90
18426;DHT22;9340;48.756;9.226;2022-07-23T12:09:18;28.60;99.90
18426;DHT22;9340;48.756;9.226;2022-07-23T12:11:58;28.80;99.90
18426;DHT22;9340;48.756;9.226;2022-07-23T12:14:25;29.00;99.90
18426;DHT22;9340;48.756;9.226;2022-07-23T12:17:07;29.10;99.90
18426;DHT22;9340;48.756;9.226;2022-07-23T12:19:35;29.20;99.90
18426;DHT22;9340;48.756;9.226;2022-07-23T12:22:02;29.30;99.90
18426;DHT22;9340;48.756;9.226;2022-07-23T12:24:29;28.90;99.90
18426;DHT22;9340;48.756;9.226;2022-07-23T12:27:09;28.90;99.90
18426;DHT22;9340;48.756;9.226;2022-07-23T12:29:37;28.70;99.90
18426;DHT22;9340;48.756;9.226;2022-07-23T12:32:17;28.70;99.90
18426;DHT22;9340;48.756;9.226;2022-07-23T12:34:43;28.50;99.90
18426;DHT22;9340;48.756;9.226;2022-07-23T12:37:28;28.40;99.90
18426;DHT22;9340;48.756;9.226;2022-07-23T12:39:55;28.50;99.90
18426;DHT22;9340;48.756;9.226;2022-07-23T12:42:23;28.60;99.90
18426;DHT22;9340;48.756;9.226;2022-07-23T12:45:10;29.00;99.90
18426;DHT22;9340;48.756;9.226;2022-07-23T12:47:59;29.20;99.90
18426;DHT22;9340;48.756;9.226;2022-07-23T12:50:49;29.20;99.90
18426;DHT22;9340;48.756;9.226;2022-07-23T12:53:17;29.30;99.90
18426;DHT22;9340;48.756;9.226;2022-07-23T12:55:45;29.30;99.90
18426;DHT22;9340;48.756;9.226;2022-07-23T12:58:15;29.40;99.90
18426;DHT22;9340;48.756;9.226;2022-07-23T13:00:54;29.70;99.90
18426;DHT22;9340;48.756;9.226;2022-07-23T13:03:23;30.00;99.90
18426;DHT22;9340;48.756;9.226;2022-07-23T13:05:50;29.60;99.90
18426;DHT22;9340;48.756;9.226;2022-07-23T13:08:17;29.70;99.90
18426;DHT22;9340;48.756;9.226;2022-07-23T13:10:43;29.60;99.90
18426;DHT22;9340;48.756;9.226;2022-07-23T13:13:14;29.80;99.90
18426;DHT22;9340;48.756;9.226;2022-07-23T13:15:41;30.00;99.90
18426;DHT22;9340;48.756;9.226;2022-07-23T13:18:08;29.60;99.90
18426;DHT22;9340;48.756;9.226;2022-07-23T13:20:35;29.80;99.90
18426;DHT22;9340;48.756;9.226;2022-07-23T13:23:04;29.90;99.90
18426;DHT22;9340;48.756;9.226;2022-07-23T13:25:30;30.10;99.90
18426;DHT22;9340;48.756;9.226;2022-07-23T13:27:57;30.10;99.90
18426;DHT22;9340;48.756;9.226;2022-07-23T13:30:25;30.30;99.90
18426;DHT22;9340;48.756;9.226;2022-07-23T13:32:52;30.40;99.90
18426;DHT22;9340;48.756;9.226;2022-07-23T13:35:19;30.50;99.90
18426;DHT22;9340;48.756;9.226;2022-07-23T13:37:45;30.40;99.90
18426;DHT22;9340;48.756;9.226;2022-07-23T13:40:12;29.60;99.90
18426;DHT22;9340;48.756;9.226;2022-07-23T13:42:39;29.40;99.90
18426;DHT22;9340;48.756;9.226;2022-07-23T13:45:07;29.30;99.90
18426;DHT22;9340;48.756;9.226;2022-07-23T13:47:35;29.30;99.90
18426;DHT22;9340;48.756;9.226;2022-07-23T13:50:03;29.50;99.90
18426;DHT22;9340;48.756;9.226;2022-07-23T13:52:30;29.40;99.90
18426;DHT22;9340;48.756;9.226;2022-07-23T13:54:58;29.20;99.90
18426;DHT22;9340;48.756;9.226;2022-07-23T13:57:25;29.50;99.90
18426;DHT22;9340;48.756;9.226;2022-07-23T13:59:52;29.90;99.90
18426;DHT22;9340;48.756;9.226;2022-07-23T14:02:19;30.30;99.90
18426;DHT22;9340;48.756;9.226;2022-07-23T14:04:47;30.50;99.90
18426;DHT22;9340;48.756;9.226;2022-07-23T14:07:14;30.40;99.90
18426;DHT22;9340;48.756;9.226;2022-07-23T14:09:41;30.30;99.90
18426;DHT22;9340;48.756;9.226;2022-07-23T14:12:08;30.10;99.90
18426;DHT22;9340;48.756;9.226;2022-07-23T14:14:35;29.80;99.90
18426;DHT22;9340;48.756;9.226;2022-07-23T14:17:03;29.70;99.90
18426;DHT22;9340;48.756;9.226;2022-07-23T14:19:29;29.40;99.90
18426;DHT22;9340;48.756;9.226;2022-07-23T14:21:58;29.50;99.90
18426;DHT22;9340;48.756;9.226;2022-07-23T14:24:25;29.70;99.90
18426;DHT22;9340;48.756;9.226;2022-07-23T14:26:52;29.80;99.90
18426;DHT22;9340;48.756;9.226;2022-07-23T14:29:18;29.70;99.90
18426;DHT22;9340;48.756;9.226;2022-07-23T14:31:45;29.50;99.90
18426;DHT22;9340;48.756;9.226;2022-07-23T14:34:12;29.60;99.90
18426;DHT22;9340;48.756;9.226;2022-07-23T14:36:38;29.80;99.90
18426;DHT22;9340;48.756;9.226;2022-07-23T14:39:06;30.00;99.90
18426;DHT22;9340;48.756;9.226;2022-07-23T14:41:34;30.30;99.90
18426;DHT22;9340;48.756;9.226;2022-07-23T14:44:01;30.50;99.90
18426;DHT22;9340;48.756;9.226;2022-07-23T14:46:28;30.60;99.90
18426;DHT22;9340;48.756;9.226;2022-07-23T14:48:54;30.50;99.90
18426;DHT22;9340;48.756;9.226;2022-07-23T14:51:21;30.40;99.90
18426;DHT22;9340;48.756;9.226;2022-07-23T14:53:48;30.50;99.90
18426;DHT22;9340;48.756;9.226;2022-07-23T14:56:16;30.70;98.10
18426;DHT22;9340;48.756;9.226;2022-07-23T14:58:43;30.90;98.50
18426;DHT22;9340;48.756;9.226;2022-07-23T15:01:09;31.10;97.70
18426;DHT22;9340;48.756;9.226;2022-07-23T15:03:36;31.20;98.10
18426;DHT22;9340;48.756;9.226;2022-07-23T15:06:03;31.10;98.10
18426;DHT22;9340;48.756;9.226;2022-07-23T15:08:30;31.10;97.50
18426;DHT22;9340;48.756;9.226;2022-07-23T15:10:57;30.70;97.90
18426;DHT22;9340;48.756;9.226;2022-07-23T15:13:25;30.90;98.60
18426;DHT22;9340;48.756;9.226;2022-07-23T15:15:51;30.60;97.30
18426;DHT22;9340;48.756;9.226;2022-07-23T15:18:18;30.70;97.70
18426;DHT22;9340;48.756;9.226;2022-07-23T15:20:45;30.80;97.40
18426;DHT22;9340;48.756;9.226;2022-07-23T15:23:11;30.90;97.20
18426;DHT22;9340;48.756;9.226;2022-07-23T15:25:39;30.70;96.70
18426;DHT22;9340;48.756;9.226;2022-07-23T15:28:05;30.80;97.20
18426;DHT22;9340;48.756;9.226;2022-07-23T15:30:33;31.00;97.30
18426;DHT22;9340;48.756;9.226;2022-07-23T15:33:00;31.10;96.20
18426;DHT22;9340;48.756;9.226;2022-07-23T15:35:27;31.10;96.40
18426;DHT22;9340;48.756;9.226;2022-07-23T15:37:54;31.20;96.20
18426;DHT22;9340;48.756;9.226;2022-07-23T15:40:20;31.20;96.10
18426;DHT22;9340;48.756;9.226;2022-07-23T15:42:47;31.20;96.40
18426;DHT22;9340;48.756;9.226;2022-07-23T15:45:15;31.20;96.60
18426;DHT22;9340;48.756;9.226;2022-07-23T15:47:43;31.00;96.50
18426;DHT22;9340;48.756;9.226;2022-07-23T15:50:10;31.10;97.10
18426;DHT22;9340;48.756;9.226;2022-07-23T15:52:36;30.80;96.80
18426;DHT22;9340;48.756;9.226;2022-07-23T15:55:04;30.60;97.40